createdAt,value
2023-01-22T00:01:55.429Z,36.08
2023-01-22T00:04:22.526Z,36.08
2023-01-22T00:06:49.449Z,36.20
2023-01-22T00:09:16.616Z,35.81
2023-01-22T00:11:43.483Z,36.48
2023-01-22T00:14:10.517Z,36.05
2023-01-22T00:16:37.580Z,36.10
2023-01-22T00:19:05.014Z,36.34
2023-01-22T00:21:31.998Z,36.96
2023-01-22T00:23:59.090Z,36.88
2023-01-22T00:26:26.135Z,36.81
2023-01-22T00:28:53.217Z,37.02
2023-01-22T00:31:20.787Z,36.87
2023-01-22T00:33:48.047Z,36.61
2023-01-22T00:36:16.336Z,37.00
2023-01-22T00:38:43.686Z,37.06
2023-01-22T00:41:10.811Z,36.69
2023-01-22T00:43:39.517Z,36.85
2023-01-22T00:46:08.267Z,36.73
2023-01-22T00:48:35.484Z,36.86
2023-01-22T00:51:02.601Z,36.88
2023-01-22T00:53:29.872Z,36.96
2023-01-22T00:55:58.784Z,37.44
2023-01-22T00:58:26.331Z,37.14
2023-01-22T01:00:53.677Z,37.35
2023-01-22T01:03:24.338Z,37.48
2023-01-22T01:05:51.466Z,37.46
2023-01-22T01:08:18.628Z,37.42
2023-01-22T01:10:45.549Z,37.37
2023-01-22T01:13:12.746Z,37.32
2023-01-22T01:15:40.191Z,37.08
2023-01-22T01:18:09.441Z,37.18
2023-01-22T01:20:36.346Z,37.49
2023-01-22T01:23:03.375Z,37.50
2023-01-22T01:25:30.347Z,37.71
2023-01-22T01:27:57.809Z,37.73
2023-01-22T01:30:24.837Z,37.89
2023-01-22T01:32:52.267Z,37.50
2023-01-22T01:35:20.002Z,37.59
2023-01-22T01:37:47.123Z,37.94
2023-01-22T01:40:14.234Z,37.73
2023-01-22T01:42:42.711Z,37.82
2023-01-22T01:45:12.724Z,37.74
2023-01-22T01:47:40.193Z,37.95
2023-01-22T01:50:08.324Z,38.06
2023-01-22T01:52:35.660Z,37.90
2023-01-22T01:55:02.660Z,38.25
2023-01-22T01:57:32.852Z,38.15
2023-01-22T02:00:01.653Z,38.04
2023-01-22T02:02:28.547Z,38.36
2023-01-22T02:04:55.536Z,38.45
2023-01-22T02:07:22.711Z,38.44
2023-01-22T02:09:49.597Z,38.16
2023-01-22T02:12:16.555Z,38.59
2023-01-22T02:14:44.829Z,38.33
2023-01-22T02:17:12.078Z,38.33
2023-01-22T02:19:40.051Z,38.51
2023-01-22T02:22:10.169Z,38.38
2023-01-22T02:24:37.494Z,38.44
2023-01-22T02:27:04.534Z,38.40
2023-01-22T02:29:31.537Z,38.59
2023-01-22T02:31:58.471Z,38.88
2023-01-22T02:34:25.355Z,38.67
2023-01-22T02:36:52.356Z,38.80
2023-01-22T02:39:19.298Z,38.86
2023-01-22T02:41:46.573Z,39.13
2023-01-22T02:44:13.622Z,38.94
2023-01-22T02:46:40.577Z,39.20
2023-01-22T02:49:07.520Z,38.82
2023-01-22T02:51:34.569Z,38.91
2023-01-22T02:54:01.417Z,39.24
2023-01-22T02:56:28.348Z,39.13
2023-01-22T02:58:55.352Z,39.19
2023-01-22T03:01:23.735Z,38.98
2023-01-22T03:03:51.834Z,39.44
2023-01-22T03:06:22.213Z,39.01
2023-01-22T03:08:50.133Z,39.15
2023-01-22T03:11:17.013Z,39.45
2023-01-22T03:13:47.007Z,39.48
2023-01-22T03:16:17.123Z,39.47
2023-01-22T03:18:47.059Z,39.23
2023-01-22T03:21:16.005Z,39.53
2023-01-22T03:23:43.709Z,39.53
2023-01-22T03:26:10.696Z,39.40
2023-01-22T03:28:37.975Z,39.34
2023-01-22T03:31:05.079Z,39.70
2023-01-22T03:33:32.592Z,39.92
2023-01-22T03:36:00.488Z,40.03
2023-01-22T03:38:27.403Z,39.92
2023-01-22T03:40:54.438Z,39.96
2023-01-22T03:43:21.345Z,39.96
2023-01-22T03:45:48.265Z,40.01
2023-01-22T03:48:15.131Z,40.23
2023-01-22T03:50:42.158Z,40.27
2023-01-22T03:53:09.057Z,40.34
2023-01-22T03:55:35.948Z,40.05
2023-01-22T03:58:02.771Z,40.27
2023-01-22T04:00:29.823Z,40.31
2023-01-22T04:02:56.726Z,40.17
2023-01-22T04:05:23.639Z,40.48
2023-01-22T04:07:51.112Z,40.42
2023-01-22T04:10:18.364Z,40.36
2023-01-22T04:12:45.407Z,40.63
2023-01-22T04:15:12.705Z,40.94
2023-01-22T04:17:39.654Z,40.86
2023-01-22T04:20:06.963Z,40.56
2023-01-22T04:22:33.860Z,40.94
2023-01-22T04:25:00.988Z,40.59
2023-01-22T04:27:27.941Z,40.99
2023-01-22T04:29:54.826Z,40.43
2023-01-22T04:32:22.238Z,40.69
2023-01-22T04:34:49.055Z,40.51
2023-01-22T04:37:16.051Z,40.48
2023-01-22T04:39:43.007Z,40.59
2023-01-22T04:42:11.032Z,40.63
2023-01-22T04:44:37.947Z,40.90
2023-01-22T04:47:04.807Z,40.68
2023-01-22T04:49:31.721Z,40.61
2023-01-22T04:51:58.786Z,40.69
2023-01-22T04:54:25.650Z,40.86
2023-01-22T04:56:53.140Z,40.48
2023-01-22T04:59:20.187Z,40.60
2023-01-22T05:01:47.209Z,40.73
2023-01-22T05:04:14.389Z,40.46
2023-01-22T05:06:41.436Z,40.61
2023-01-22T05:09:08.840Z,40.48
2023-01-22T05:11:35.648Z,40.55
2023-01-22T05:14:02.630Z,40.92
2023-01-22T05:16:29.534Z,40.43
2023-01-22T05:18:56.405Z,40.88
2023-01-22T05:21:23.367Z,40.86
2023-01-22T05:23:50.275Z,40.60
2023-01-22T05:26:17.926Z,40.84
2023-01-22T05:28:45.059Z,40.97
2023-01-22T05:31:12.021Z,40.73
2023-01-22T05:33:41.206Z,41.05
2023-01-22T05:36:09.737Z,41.04
2023-01-22T05:38:37.080Z,40.78
2023-01-22T05:41:03.998Z,40.94
2023-01-22T05:43:30.938Z,40.92
2023-01-22T05:46:00.896Z,41.02
2023-01-22T05:48:27.866Z,40.76
2023-01-22T05:50:54.834Z,41.18
2023-01-22T05:53:21.797Z,40.84
2023-01-22T05:55:48.794Z,40.97
2023-01-22T05:58:15.650Z,41.10
2023-01-22T06:00:42.829Z,40.72
2023-01-22T06:03:09.726Z,40.86
2023-01-22T06:05:36.833Z,41.13
2023-01-22T06:08:03.757Z,40.89
2023-01-22T06:10:30.780Z,40.96
2023-01-22T06:12:57.716Z,40.94
2023-01-22T06:15:24.582Z,41.24
2023-01-22T06:17:51.591Z,41.17
2023-01-22T06:20:18.801Z,41.00
2023-01-22T06:22:45.806Z,41.07
2023-01-22T06:25:12.920Z,40.92
2023-01-22T06:27:39.821Z,41.17
2023-01-22T06:30:07.166Z,41.24
2023-01-22T06:32:34.112Z,41.41
2023-01-22T06:35:01.018Z,41.50
2023-01-22T06:37:27.968Z,41.15
2023-01-22T06:39:54.887Z,41.30
2023-01-22T06:42:21.724Z,41.28
2023-01-22T06:44:50.879Z,41.50
2023-01-22T06:47:17.769Z,41.22
2023-01-22T06:49:45.325Z,41.26
2023-01-22T06:52:12.259Z,41.33
2023-01-22T06:54:39.401Z,41.44
2023-01-22T06:57:06.290Z,41.83
2023-01-22T06:59:53.023Z,41.51
2023-01-22T07:02:20.213Z,41.75
2023-01-22T07:04:47.407Z,41.56
2023-01-22T07:07:14.879Z,41.55
2023-01-22T07:09:41.808Z,41.74
2023-01-22T07:12:08.759Z,42.04
2023-01-22T07:14:37.430Z,41.93
2023-01-22T07:19:45.419Z,41.93
2023-01-22T07:24:52.766Z,41.84
2023-01-22T07:27:19.594Z,41.75
2023-01-22T07:29:48.009Z,41.96
2023-01-22T07:32:14.965Z,42.25
2023-01-22T07:34:41.902Z,42.23
2023-01-22T07:37:08.821Z,42.25
2023-01-22T07:39:35.880Z,42.07
2023-01-22T07:42:02.869Z,42.19
2023-01-22T07:44:29.732Z,41.74
2023-01-22T07:46:56.699Z,41.65
2023-01-22T07:49:23.590Z,41.56
2023-01-22T07:51:50.627Z,41.61
2023-01-22T07:54:18.613Z,41.40
2023-01-22T07:56:46.629Z,41.07
2023-01-22T07:59:13.465Z,41.00
2023-01-22T08:01:40.607Z,41.52
2023-01-22T08:04:07.486Z,41.35
2023-01-22T08:06:34.410Z,41.27
2023-01-22T08:09:01.357Z,41.03
2023-01-22T08:11:28.855Z,41.02
2023-01-22T08:13:55.809Z,40.52
2023-01-22T08:16:22.718Z,40.20
2023-01-22T08:18:49.589Z,40.69
2023-01-22T08:21:17.006Z,40.24
2023-01-22T08:23:47.505Z,40.56
2023-01-22T08:26:15.792Z,40.08
2023-01-22T08:28:42.634Z,39.92
2023-01-22T08:31:19.287Z,40.04
2023-01-22T08:33:53.515Z,40.21
2023-01-22T08:36:20.444Z,40.22
2023-01-22T08:38:48.261Z,39.74
2023-01-22T08:41:16.269Z,39.96
2023-01-22T08:43:43.205Z,39.44
2023-01-22T08:46:10.098Z,39.79
2023-01-22T08:48:37.045Z,39.71
2023-01-22T08:51:04.431Z,39.43
2023-01-22T08:53:31.673Z,39.20
2023-01-22T08:55:58.757Z,39.40
2023-01-22T08:58:28.329Z,38.78
2023-01-22T09:00:55.789Z,39.13
2023-01-22T09:03:23.181Z,38.96
2023-01-22T09:05:51.349Z,38.87
2023-01-22T09:08:18.239Z,38.39
2023-01-22T09:10:45.069Z,38.70
2023-01-22T09:13:11.972Z,38.32
2023-01-22T09:15:40.510Z,38.47
2023-01-22T09:18:07.340Z,38.70
2023-01-22T09:20:34.228Z,38.60
2023-01-22T09:23:01.111Z,38.40
2023-01-22T09:25:28.574Z,38.62
2023-01-22T09:27:59.415Z,38.73
2023-01-22T09:30:27.174Z,38.71
2023-01-22T09:32:54.079Z,38.34
2023-01-22T09:35:21.031Z,38.37
2023-01-22T09:37:47.938Z,38.72
2023-01-22T09:40:21.884Z,38.63
2023-01-22T09:42:49.990Z,38.77
2023-01-22T09:45:25.946Z,38.63
2023-01-22T09:47:54.736Z,38.59
2023-01-22T09:50:24.915Z,38.84
2023-01-22T09:52:53.236Z,38.93
2023-01-22T09:55:22.159Z,39.11
2023-01-22T09:57:50.351Z,39.02
2023-01-22T10:00:20.654Z,38.68
2023-01-22T10:02:51.668Z,38.77
2023-01-22T10:05:20.108Z,38.91
2023-01-22T10:07:51.733Z,39.24
2023-01-22T10:10:21.412Z,39.42
2023-01-22T10:12:51.570Z,38.69
2023-01-22T10:15:21.285Z,37.00
2023-01-22T10:17:48.410Z,37.09
2023-01-22T10:20:17.152Z,36.99
2023-01-22T10:22:44.557Z,36.49
2023-01-22T10:25:13.824Z,36.51
2023-01-22T10:27:41.387Z,36.91
2023-01-22T10:30:19.753Z,36.70
2023-01-22T10:32:58.111Z,36.44
2023-01-22T10:35:25.148Z,36.33
2023-01-22T10:37:53.693Z,36.32
2023-01-22T10:40:23.506Z,36.36
2023-01-22T10:42:53.665Z,36.41
2023-01-22T10:45:20.584Z,36.54
2023-01-22T10:47:47.757Z,36.15
2023-01-22T10:50:15.814Z,35.90
2023-01-22T10:52:43.131Z,35.92
2023-01-22T10:55:13.546Z,35.93
2023-01-22T10:57:40.828Z,36.04
2023-01-22T11:00:21.946Z,35.73
2023-01-22T11:02:50.592Z,35.85
2023-01-22T11:05:19.550Z,36.00
2023-01-22T11:07:48.109Z,35.91
2023-01-22T11:10:18.436Z,35.74
2023-01-22T11:12:48.588Z,34.14
2023-01-22T11:15:19.065Z,34.67
2023-01-22T11:17:49.819Z,34.94
2023-01-22T11:20:22.438Z,34.82
2023-01-22T11:22:59.721Z,35.21
2023-01-22T11:25:27.748Z,35.41
2023-01-22T11:27:56.012Z,35.54
2023-01-22T11:30:26.293Z,35.42
2023-01-22T11:32:59.669Z,35.62
2023-01-22T11:35:30.184Z,35.81
2023-01-22T11:38:00.116Z,35.54
2023-01-22T11:40:29.964Z,35.73
2023-01-22T11:42:58.293Z,35.90
2023-01-22T11:45:28.486Z,35.94
2023-01-22T11:47:58.411Z,36.06
2023-01-22T11:50:26.103Z,35.85
2023-01-22T11:53:03.014Z,35.94
2023-01-22T11:55:39.968Z,36.05
2023-01-22T11:58:09.878Z,36.15
2023-01-22T12:00:37.130Z,35.70
2023-01-22T12:03:07.848Z,35.88
2023-01-22T12:05:35.099Z,36.02
2023-01-22T12:08:03.773Z,35.89
2023-01-22T12:10:33.689Z,35.93
2023-01-22T12:13:03.568Z,35.58
2023-01-22T12:15:30.853Z,35.82
2023-01-22T12:18:00.863Z,35.73
2023-01-22T12:20:28.138Z,35.60
2023-01-22T12:22:58.156Z,35.36
2023-01-22T12:25:26.363Z,35.53
2023-01-22T12:27:56.281Z,35.82
2023-01-22T12:30:27.713Z,35.91
2023-01-22T12:32:59.008Z,35.64
2023-01-22T12:35:27.191Z,35.65
2023-01-22T12:37:57.187Z,35.60
2023-01-22T12:40:27.128Z,35.42
2023-01-22T12:42:55.528Z,35.34
2023-01-22T12:45:27.259Z,35.46
2023-01-22T12:47:57.161Z,35.28
2023-01-22T12:50:25.947Z,35.46
2023-01-22T12:52:56.009Z,35.10
2023-01-22T12:55:28.763Z,35.03
2023-01-22T12:57:56.176Z,35.15
2023-01-22T13:00:23.502Z,34.96
2023-01-22T13:02:50.885Z,35.00
2023-01-22T13:05:19.980Z,34.91
2023-01-22T13:07:47.313Z,34.87
2023-01-22T13:10:17.509Z,35.05
2023-01-22T13:12:48.233Z,35.10
2023-01-22T13:15:18.308Z,35.15
2023-01-22T13:17:55.754Z,34.97
2023-01-22T13:20:30.576Z,35.15
2023-01-22T13:22:58.630Z,34.86
2023-01-22T13:25:27.407Z,35.21
2023-01-22T13:27:55.006Z,35.16
2023-01-22T13:30:27.311Z,35.05
2023-01-22T13:32:57.353Z,35.05
2023-01-22T13:35:24.342Z,34.96
2023-01-22T13:37:51.710Z,34.83
2023-01-22T13:40:21.744Z,35.14
2023-01-22T13:42:49.002Z,35.24
2023-01-22T13:45:18.943Z,34.81
2023-01-22T13:47:45.963Z,34.96
2023-01-22T13:50:16.054Z,34.77
2023-01-22T13:52:43.222Z,34.90
2023-01-22T13:55:13.259Z,34.57
2023-01-22T13:57:45.134Z,34.15
2023-01-22T14:00:15.211Z,34.57
2023-01-22T14:02:44.727Z,33.76
2023-01-22T14:05:15.475Z,34.35
2023-01-22T14:07:42.711Z,34.03
2023-01-22T14:10:13.174Z,33.90
2023-01-22T14:12:40.589Z,33.71
2023-01-22T14:15:11.165Z,33.93
2023-01-22T14:17:38.625Z,33.83
2023-01-22T14:20:05.859Z,33.68
2023-01-22T14:22:32.853Z,33.54
2023-01-22T14:24:59.791Z,33.44
2023-01-22T14:27:28.242Z,33.61
2023-01-22T14:29:55.963Z,33.93
2023-01-22T14:32:24.243Z,33.74
2023-01-22T14:34:51.381Z,33.38
2023-01-22T14:37:18.487Z,33.14
2023-01-22T14:39:45.436Z,33.44
2023-01-22T14:42:12.554Z,33.27
2023-01-22T14:44:39.465Z,33.04
2023-01-22T14:47:06.540Z,33.13
2023-01-22T14:49:33.717Z,33.07
2023-01-22T14:52:00.857Z,32.98
2023-01-22T14:54:28.468Z,33.01
2023-01-22T14:56:56.415Z,33.40
2023-01-22T14:59:23.414Z,33.21
2023-01-22T15:01:50.469Z,33.18
2023-01-22T15:04:18.129Z,33.21
2023-01-22T15:06:45.094Z,33.30
2023-01-22T15:09:12.559Z,32.96
2023-01-22T15:11:39.619Z,33.06
2023-01-22T15:14:08.005Z,33.01
2023-01-22T15:16:35.026Z,33.28
2023-01-22T15:19:03.687Z,33.25
2023-01-22T15:21:30.730Z,33.10
2023-01-22T15:23:57.795Z,33.27
2023-01-22T15:26:27.954Z,33.31
2023-01-22T15:28:55.837Z,33.25
2023-01-22T15:31:23.094Z,33.48
2023-01-22T15:33:50.925Z,33.35
2023-01-22T15:36:17.948Z,33.49
2023-01-22T15:38:44.977Z,33.66
2023-01-22T15:41:15.004Z,33.76
2023-01-22T15:43:42.142Z,33.50
2023-01-22T15:46:09.290Z,33.34
2023-01-22T15:48:40.283Z,33.79
2023-01-22T15:51:18.428Z,33.61
2023-01-22T15:54:00.594Z,33.89
2023-01-22T15:56:33.830Z,33.91
2023-01-22T15:59:10.919Z,33.73
2023-01-22T16:01:45.476Z,33.79
2023-01-22T16:04:14.331Z,33.84
2023-01-22T16:06:42.265Z,33.82
2023-01-22T16:09:10.580Z,33.93
2023-01-22T16:11:41.233Z,33.63
2023-01-22T16:14:10.542Z,33.78
2023-01-22T16:16:58.720Z,33.77
2023-01-22T16:19:38.249Z,34.03
2023-01-22T16:24:42.171Z,34.42
2023-01-22T16:30:31.952Z,34.26
2023-01-22T16:33:04.671Z,34.51
2023-01-22T16:35:32.577Z,34.69
2023-01-22T16:37:59.349Z,34.59
2023-01-22T16:40:26.352Z,34.59
2023-01-22T16:43:00.145Z,34.73
2023-01-22T16:45:28.768Z,34.53
2023-01-22T16:47:56.660Z,34.40
2023-01-22T16:50:23.478Z,34.71
2023-01-22T16:52:50.811Z,34.42
2023-01-22T16:55:30.454Z,34.36
2023-01-22T16:57:58.843Z,34.60
2023-01-22T17:00:25.595Z,34.77
2023-01-22T17:02:52.408Z,34.40
2023-01-22T17:05:45.356Z,34.86
2023-01-22T17:08:12.059Z,34.40
2023-01-22T17:10:38.759Z,34.81
2023-01-22T17:13:06.805Z,34.59
2023-01-22T17:15:33.749Z,34.56
2023-01-22T17:18:00.739Z,34.77
2023-01-22T17:20:27.493Z,34.43
2023-01-22T17:22:55.814Z,34.82
2023-01-22T17:25:32.809Z,34.97
2023-01-22T17:28:03.279Z,34.58
2023-01-22T17:30:30.860Z,34.96
2023-01-22T17:32:57.594Z,34.57
2023-01-22T17:35:27.684Z,34.85
2023-01-22T17:37:54.450Z,34.75
2023-01-22T17:40:21.236Z,34.62
2023-01-22T17:42:48.429Z,34.75
2023-01-22T17:45:27.885Z,34.68
2023-01-22T17:47:54.626Z,34.48
2023-01-22T17:50:21.397Z,34.81
2023-01-22T17:52:48.178Z,34.74
2023-01-22T17:55:15.043Z,34.62
2023-01-22T17:57:42.133Z,34.56
2023-01-22T18:00:10.340Z,34.71
2023-01-22T18:02:37.081Z,34.46
2023-01-22T18:05:04.085Z,34.58
2023-01-22T18:07:30.782Z,34.30
2023-01-22T18:09:57.618Z,34.27
2023-01-22T18:12:25.149Z,34.19
2023-01-22T18:14:51.824Z,34.34
2023-01-22T18:17:18.538Z,34.34
2023-01-22T18:19:45.339Z,34.51
2023-01-22T18:22:11.996Z,34.16
2023-01-22T18:24:38.820Z,34.39
2023-01-22T18:27:07.286Z,34.00
2023-01-22T18:29:33.989Z,34.27
2023-01-22T18:32:00.741Z,34.29
2023-01-22T18:34:27.492Z,34.25
2023-01-22T18:36:55.187Z,34.04
2023-01-22T18:39:22.634Z,33.95
2023-01-22T18:41:49.804Z,33.99
2023-01-22T18:44:17.548Z,34.47
2023-01-22T18:46:48.331Z,34.22
2023-01-22T18:49:17.462Z,34.46
2023-01-22T18:51:45.423Z,34.17
2023-01-22T18:54:12.213Z,34.44
2023-01-22T18:56:39.532Z,34.47
2023-01-22T18:59:06.327Z,34.26
2023-01-22T19:01:34.345Z,34.17
2023-01-22T19:04:02.759Z,34.25
2023-01-22T19:06:31.623Z,34.63
2023-01-22T19:09:02.901Z,34.13
2023-01-22T19:11:30.275Z,34.64
2023-01-22T19:13:57.786Z,34.23
2023-01-22T19:16:25.089Z,34.41
2023-01-22T19:18:55.772Z,34.43
2023-01-22T19:21:23.425Z,34.79
2023-01-22T19:23:51.551Z,34.62
2023-01-22T19:26:23.138Z,34.28
2023-01-22T19:28:52.106Z,34.51
2023-01-22T19:31:23.750Z,34.60
2023-01-22T19:33:51.475Z,34.47
2023-01-22T19:36:19.173Z,34.79
2023-01-22T19:38:46.410Z,34.67
2023-01-22T19:41:13.162Z,34.54
2023-01-22T19:43:39.947Z,34.46
2023-01-22T19:46:08.406Z,34.88
2023-01-22T19:48:35.507Z,34.90
2023-01-22T19:51:04.049Z,34.96
2023-01-22T19:53:30.956Z,34.54
2023-01-22T19:56:00.822Z,34.53
2023-01-22T19:58:28.591Z,34.88
2023-01-22T20:00:56.203Z,34.89
2023-01-22T20:03:23.761Z,34.95
2023-01-22T20:05:51.009Z,35.28
2023-01-22T20:08:17.788Z,34.93
2023-01-22T20:10:44.744Z,34.91
2023-01-22T20:13:11.947Z,34.53
2023-01-22T20:15:40.004Z,34.67
2023-01-22T20:18:07.204Z,34.93
2023-01-22T20:20:33.952Z,34.77
2023-01-22T20:23:00.629Z,35.21
2023-01-22T20:25:31.029Z,35.17
2023-01-22T20:27:58.663Z,35.13
2023-01-22T20:30:25.344Z,35.34
2023-01-22T20:32:52.095Z,35.32
2023-01-22T20:35:30.676Z,35.23
2023-01-22T20:37:57.439Z,35.33
2023-01-22T20:40:24.846Z,35.38
2023-01-22T20:42:52.525Z,35.33
2023-01-22T20:45:33.085Z,35.74
2023-01-22T20:47:59.845Z,35.77
2023-01-22T20:50:26.741Z,35.76
2023-01-22T20:52:54.058Z,35.32
2023-01-22T20:55:28.185Z,35.65
2023-01-22T20:57:54.889Z,35.86
2023-01-22T21:00:21.604Z,35.71
2023-01-22T21:02:49.558Z,35.52
2023-01-22T21:05:26.998Z,35.84
2023-01-22T21:07:53.822Z,35.85
2023-01-22T21:10:20.762Z,35.67
2023-01-22T21:12:47.584Z,35.80
2023-01-22T21:15:28.681Z,35.69
2023-01-22T21:17:59.401Z,36.06
2023-01-22T21:20:26.179Z,36.09
2023-01-22T21:22:54.899Z,35.95
2023-01-22T21:25:33.403Z,36.12
2023-01-22T21:28:07.714Z,36.02
2023-01-22T21:30:34.886Z,36.27
2023-01-22T21:33:01.670Z,36.08
2023-01-22T21:35:34.825Z,35.99
2023-01-22T21:38:01.487Z,36.38
2023-01-22T21:40:28.374Z,36.20
2023-01-22T21:43:13.855Z,35.91
2023-01-22T21:46:00.464Z,36.33
2023-01-22T21:48:29.052Z,35.97
2023-01-22T21:50:55.947Z,36.16
2023-01-22T21:53:22.784Z,36.38
2023-01-22T21:55:53.058Z,36.69
2023-01-22T21:58:20.157Z,36.30
2023-01-22T22:00:46.888Z,36.90
2023-01-22T22:03:13.717Z,36.55
2023-01-22T22:05:40.409Z,36.30
2023-01-22T22:08:07.387Z,36.61
2023-01-22T22:10:34.230Z,36.57
2023-01-22T22:13:00.931Z,36.79
2023-01-22T22:15:27.771Z,36.91
2023-01-22T22:17:54.421Z,36.73
2023-01-22T22:20:21.336Z,36.90
2023-01-22T22:22:48.380Z,36.68
2023-01-22T22:25:15.092Z,37.06
2023-01-22T22:27:42.222Z,36.59
2023-01-22T22:30:09.193Z,37.06
2023-01-22T22:32:35.921Z,36.56
2023-01-22T22:35:02.725Z,36.83
2023-01-22T22:37:29.374Z,36.85
2023-01-22T22:39:56.338Z,36.76
2023-01-22T22:42:22.976Z,36.81
2023-01-22T22:44:49.606Z,36.48
2023-01-22T22:47:16.232Z,36.89
2023-01-22T22:49:43.044Z,36.90
2023-01-22T22:52:11.049Z,36.91
2023-01-22T22:54:37.822Z,36.96
2023-01-22T22:57:04.846Z,37.08
2023-01-22T22:59:31.825Z,37.50
2023-01-22T23:01:58.967Z,37.35
2023-01-22T23:04:25.876Z,37.61
2023-01-22T23:06:52.605Z,37.38
2023-01-22T23:09:19.987Z,37.27
2023-01-22T23:11:47.023Z,37.30
2023-01-22T23:14:13.943Z,36.84
2023-01-22T23:16:44.612Z,37.08
2023-01-22T23:19:16.067Z,37.32
2023-01-22T23:21:42.925Z,36.80
2023-01-22T23:24:10.580Z,37.09
2023-01-22T23:26:37.692Z,36.99
2023-01-22T23:29:05.665Z,36.98
2023-01-22T23:31:33.562Z,37.04
2023-01-22T23:34:01.459Z,37.13
2023-01-22T23:36:28.278Z,37.38
2023-01-22T23:38:55.168Z,37.08
2023-01-22T23:41:21.909Z,37.24
2023-01-22T23:43:49.140Z,37.21
2023-01-22T23:46:20.342Z,37.31
2023-01-22T23:48:47.136Z,37.05
2023-01-22T23:51:15.080Z,36.96
2023-01-22T23:53:43.111Z,37.19
2023-01-22T23:56:10.766Z,36.66
2023-01-22T23:58:38.042Z,36.76
